Latest Coastal Weather Observations for Charles Point

IDD60701

Issued at 11:41 pm CST Friday 27 May 2016 (issued every 10 minutes, with the page automatically refreshed every 10 minutes)

About coastal observations | Map of coastal stations | Coastal observations for NT | Marine services | Other Formats
Station Details ID: 014031 Name: CHARLES POINT Lat: -12.39 Lon: 130.63 Height: 14.0 m
Data from the previous 72 hours. | See also: Recent months for locations in Northern Territory
Date/Time
CST
Temp

°C
Wind Pressure Rain
since 9am
mm
Weather Cloud Vis
km
Sea
Height
m
Swell
Dir
 
Speed
knots
Gust
knots
hPa Trend Height
m
Period
s
Dir
27/11:30pm 25.9 W 2 4 1012.7 - 0.0 - - - - - - -
27/11:00pm 26.3 WSW 2 3 1012.6 - 0.0 - - - - - - -
27/10:30pm 26.6 WSW 2 4 1012.5 - 0.0 - - - - - - -
27/10:00pm 26.5 WSW 2 3 1012.8 - 0.0 - - - - - - -
27/09:30pm 27.1 WSW 2 4 1012.7 - 0.0 - - - - - - -
27/09:00pm 27.1 WSW 2 4 1012.6 - 0.0 - - - - - - -
27/08:30pm 27.0 WSW 2 4 1012.4 - 0.0 - - - - - - -
27/08:00pm 27.4 WSW 3 4 1012.3 - 0.0 - - - - - - -
27/07:30pm 27.5 WSW 3 4 1011.9 - 0.0 - - - - - - -
27/07:00pm 27.7 SW 2 3 1011.5 - 0.0 - - - - - - -
27/06:30pm 28.4 WSW 3 5 1011.3 - 0.0 - - - - - - -
27/06:00pm 29.5 W 4 6 1011.1 - 0.0 - - - - - - -
27/05:30pm 30.2 W 4 8 1011.0 - 0.0 - - - - - - -
27/05:00pm 30.9 W 6 11 1010.9 - 0.0 - - - - - - -
27/04:30pm 31.5 W 6 10 1010.9 - 0.0 - - - - - - -
27/04:00pm 31.3 WNW 7 11 1010.9 - 0.0 - - - - - - -
27/03:30pm 30.9 SW 3 5 1011.2 - 0.0 - - - - - - -
27/03:00pm 29.1 S 5 9 1011.9 - 0.0 - - - - - - -
27/02:30pm 30.4 W 5 9 1012.2 - 0.0 - - - - - - -
27/02:00pm 31.5 W 7 12 1012.4 - 0.0 - - - - - - -
27/01:30pm 31.4 WNW 9 12 1013.0 - 0.0 - - - - - - -
27/01:00pm 31.9 WNW 8 11 1013.4 - 0.0 - - - - - - -
27/12:30pm 32.1 WNW 8 11 1013.8 - 0.0 - - - - - - -
27/12:00pm 31.2 WNW 7 10 1013.9 - 0.0 - - - - - - -
27/11:30am 31.4 WNW 7 10 1014.4 - 0.0 - - - - - - -
27/11:00am 31.6 WNW 6 8 1014.6 - 0.0 - - - - - - -
27/10:30am 30.9 WNW 4 7 1014.8 - 0.0 - - - - - - -
27/10:00am 31.4 WNW 5 7 1014.9 - 0.0 - - - - - - -
27/09:30am 30.4 WNW 4 7 1014.9 - 0.0 - - - - - - -
27/09:00am 28.8 SW 2 3 1014.6 - 0.0 - - - - - - -
27/08:30am 26.8 SW 1 3 1014.2 - 0.0 - - - - - - -
27/08:00am 25.8 SW 2 2 1013.8 - 0.0 - - - - - - -
27/07:30am 24.7 SW 2 3 1013.5 - 0.0 - - - - - - -
27/07:00am 24.4 SW 2 3 1013.3 - 0.0 - - - - - - -
27/06:30am 24.5 SSW 2 3 1012.9 - 0.0 - - - - - - -
27/06:00am 24.6 SSW 3 3 1012.8 - 0.0 - - - - - - -
27/05:30am 24.6 S 3 4 1012.7 - 0.0 - - - - - - -
27/05:00am 24.6 S 3 3 1012.6 - 0.0 - - - - - - -
27/04:30am 24.5 SSW 3 3 1012.5 - 0.0 - - - - - - -
27/04:00am 24.6 SSW 3 3 1012.5 - 0.0 - - - - - - -
27/03:30am 24.7 SW 3 3 1012.5 - 0.0 - - - - - - -
27/03:00am 25.1 WSW 2 2 1012.5 - 0.0 - - - - - - -
27/02:30am 25.4 WSW 2 3 1012.6 - 0.0 - - - - - - -
27/02:00am 25.6 WSW 2 3 1012.7 - 0.0 - - - - - - -
27/01:30am 25.5 WSW 2 3 1012.8 - 0.0 - - - - - - -
27/01:00am 26.1 WSW 2 3 1012.9 - 0.0 - - - - - - -
27/12:30am 26.1 WSW 2 3 1013.0 - 0.0 - - - - - - -
27/12:00am 26.6 WSW 2 3 1013.1 - 0.0 - - - - - - -
 
Date/Time
CST
Temp

°C
Wind Pressure Rain
since 9am
mm
Weather Cloud Vis
km
Sea
Height
m
Swell
Dir
 
Speed
knots
Gust
knots
hPa Trend Height
m
Period
s
Dir
26/11:30pm 26.4 WSW 2 4 1013.2 - 0.0 - - - - - - -
26/11:00pm 26.0 SW 2 3 1013.2 - 0.0 - - - - - - -
26/10:30pm 26.1 SW 2 3 1013.3 - 0.0 - - - - - - -
26/10:00pm 26.8 WSW 2 4 1013.0 - 0.0 - - - - - - -
26/09:30pm 26.8 WSW 2 4 1013.1 - 0.0 - - - - - - -
26/09:00pm 26.8 SW 2 5 1012.9 - 0.0 - - - - - - -
26/08:30pm 26.6 SW 2 4 1012.7 - 0.0 - - - - - - -
26/08:00pm 26.9 SW 2 4 1012.4 - 0.0 - - - - - - -
26/07:30pm 26.9 SW 2 3 1012.0 - 0.0 - - - - - - -
26/07:00pm 27.5 WSW 2 5 1011.8 - 0.0 - - - - - - -
26/06:30pm 28.4 WSW 2 3 1011.6 - 0.0 - - - - - - -
26/06:00pm 29.7 W 3 6 1011.4 - 0.0 - - - - - - -
26/05:30pm 30.4 W 4 6 1011.1 - 0.0 - - - - - - -
26/05:00pm 31.6 W 4 7 1010.8 - 0.0 - - - - - - -
26/04:30pm 31.6 WNW 6 9 1010.9 - 0.0 - - - - - - -
26/04:00pm 31.9 NW 5 9 1011.0 - 0.0 - - - - - - -
26/03:30pm 31.7 WNW 6 9 1011.3 - 0.0 - - - - - - -
26/03:00pm 32.2 WNW 6 9 1011.4 - 0.0 - - - - - - -
26/02:30pm 32.1 WNW 6 9 1011.6 - 0.0 - - - - - - -
26/02:00pm 31.7 NW 5 8 1012.0 - 0.0 - - - - - - -
26/01:30pm 31.7 NW 5 7 1012.5 - 0.0 - - - - - - -
26/01:00pm 31.6 NW 5 7 1013.0 - 0.0 - - - - - - -
26/12:30pm 31.9 NW 5 7 1013.4 - 0.0 - - - - - - -
26/12:00pm 32.1 NW 5 7 1013.9 - 0.0 - - - - - - -
26/11:30am 31.2 NW 5 7 1014.1 - 0.0 - - - - - - -
26/11:00am 31.3 NW 5 7 1014.5 - 0.0 - - - - - - -
26/10:30am 31.1 WNW 4 7 1014.5 - 0.0 - - - - - - -
26/10:00am 30.9 SW 2 4 1014.5 - 0.0 - - - - - - -
26/09:30am 29.1 S 2 3 1014.5 - 0.0 - - - - - - -
26/09:00am 28.6 S 3 5 1014.2 - - - - - - - - -
26/08:30am 27.6 S 2 3 1013.8 - - - - - - - - -

Other Formats:

Comma delimited format used in spreadsheet applications
http://www.bom.gov.au/fwo/IDD60701/IDD60701.99510.axf

JavaScript Object Notation format (JSON) in row-major order
http://www.bom.gov.au/fwo/IDD60701/IDD60701.99510.json